createdAt,value
2018-07-24T00:00:08.380Z,17.51
2018-07-24T00:02:39.778Z,17.48
2018-07-24T00:05:13.216Z,17.24
2018-07-24T00:07:46.248Z,17.42
2018-07-24T00:10:17.428Z,17.38
2018-07-24T00:12:50.360Z,17.25
2018-07-24T00:15:23.564Z,17.20
2018-07-24T00:17:55.677Z,17.23
2018-07-24T00:20:30.774Z,17.27
2018-07-24T00:23:02.539Z,17.13
2018-07-24T00:25:40.083Z,16.99
2018-07-24T00:28:12.521Z,16.91
2018-07-24T00:30:51.291Z,17.05
2018-07-24T00:33:22.742Z,17.11
2018-07-24T00:35:53.919Z,17.25
2018-07-24T00:38:25.251Z,17.06
2018-07-24T00:40:56.378Z,16.97
2018-07-24T00:43:27.310Z,17.02
2018-07-24T00:45:58.273Z,16.95
2018-07-24T00:48:30.131Z,16.97
2018-07-24T00:51:01.990Z,16.97
2018-07-24T00:53:33.541Z,17.06
2018-07-24T00:56:04.844Z,16.97
2018-07-24T00:58:36.701Z,16.86
2018-07-24T01:01:07.993Z,16.86
2018-07-24T01:03:39.036Z,16.81
2018-07-24T01:06:10.360Z,16.54
2018-07-24T01:08:41.679Z,16.72
2018-07-24T01:11:12.714Z,16.75
2018-07-24T01:13:44.003Z,16.66
2018-07-24T01:16:15.229Z,16.53
2018-07-24T01:18:46.477Z,16.50
2018-07-24T01:21:17.593Z,16.58
2018-07-24T01:23:49.271Z,16.55
2018-07-24T01:26:20.469Z,16.47
2018-07-24T01:28:52.312Z,16.57
2018-07-24T01:31:23.393Z,16.55
2018-07-24T01:33:54.446Z,16.57
2018-07-24T01:36:25.600Z,16.60
2018-07-24T01:38:56.805Z,16.56
2018-07-24T01:41:28.005Z,16.40
2018-07-24T01:43:59.328Z,16.24
2018-07-24T01:46:30.502Z,16.31
2018-07-24T01:49:01.838Z,16.31
2018-07-24T01:51:33.367Z,16.32
2018-07-24T01:54:04.902Z,16.31
2018-07-24T01:56:37.383Z,16.26
2018-07-24T01:59:08.826Z,16.24
2018-07-24T02:01:40.028Z,16.21
2018-07-24T02:04:11.605Z,16.20
2018-07-24T02:06:42.642Z,16.19
2018-07-24T02:09:13.943Z,16.11
2018-07-24T02:11:44.926Z,15.91
2018-07-24T02:14:16.468Z,16.04
2018-07-24T02:16:47.691Z,15.98
2018-07-24T02:19:19.198Z,16.01
2018-07-24T02:21:50.335Z,16.05
2018-07-24T02:24:21.855Z,15.67
2018-07-24T02:26:53.037Z,15.82
2018-07-24T02:29:24.520Z,15.77
2018-07-24T02:31:55.801Z,15.97
2018-07-24T02:34:27.720Z,15.81
2018-07-24T02:36:58.900Z,15.76
2018-07-24T02:39:30.362Z,15.76
2018-07-24T02:42:03.040Z,15.87
2018-07-24T02:44:34.581Z,15.70
2018-07-24T02:47:05.860Z,15.76
2018-07-24T02:49:37.149Z,15.81
2018-07-24T02:52:08.469Z,15.74
2018-07-24T02:54:39.714Z,15.78
2018-07-24T02:57:10.807Z,15.61
2018-07-24T02:59:41.931Z,15.60
2018-07-24T03:02:13.279Z,15.55
2018-07-24T03:04:44.704Z,15.60
2018-07-24T03:07:16.607Z,15.59
2018-07-24T03:09:47.961Z,15.73
2018-07-24T03:12:20.945Z,15.67
2018-07-24T03:14:52.168Z,15.45
2018-07-24T03:17:23.277Z,15.46
2018-07-24T03:19:54.527Z,15.63
2018-07-24T03:22:25.766Z,15.58
2018-07-24T03:24:57.419Z,15.58
2018-07-24T03:27:28.619Z,15.56
2018-07-24T03:30:05.178Z,15.39
2018-07-24T03:32:36.566Z,15.24
2018-07-24T03:35:07.667Z,15.36
2018-07-24T03:37:38.756Z,15.34
2018-07-24T03:40:09.872Z,15.48
2018-07-24T03:42:41.157Z,15.30
2018-07-24T03:45:12.417Z,15.26
2018-07-24T03:47:43.667Z,15.27
2018-07-24T03:50:14.836Z,15.24
2018-07-24T03:52:46.554Z,15.08
2018-07-24T03:55:17.978Z,15.13
2018-07-24T03:57:49.296Z,15.18
2018-07-24T04:00:20.638Z,15.22
2018-07-24T04:02:51.950Z,15.35
2018-07-24T04:05:23.090Z,15.46
2018-07-24T04:07:54.329Z,15.49
2018-07-24T04:10:26.915Z,15.57
2018-07-24T04:13:10.971Z,15.61
2018-07-24T04:15:42.003Z,15.63
2018-07-24T04:18:18.636Z,15.67
2018-07-24T04:20:49.634Z,15.68
2018-07-24T04:23:21.199Z,15.75
2018-07-24T04:25:52.510Z,15.68
2018-07-24T04:28:23.996Z,15.75
2018-07-24T04:30:55.179Z,15.79
2018-07-24T04:33:26.659Z,15.71
2018-07-24T04:35:57.812Z,15.72
2018-07-24T04:38:28.978Z,15.79
2018-07-24T04:41:00.282Z,15.78
2018-07-24T04:43:31.572Z,15.83
2018-07-24T04:46:02.705Z,15.87
2018-07-24T04:48:34.526Z,15.90
2018-07-24T04:51:05.731Z,16.02
2018-07-24T04:53:36.971Z,16.18
2018-07-24T04:56:08.176Z,16.18
2018-07-24T04:58:39.495Z,16.24
2018-07-24T05:01:12.196Z,16.35
2018-07-24T05:03:45.914Z,16.42
2018-07-24T05:06:17.091Z,16.40
2018-07-24T05:08:48.739Z,16.37
2018-07-24T05:11:19.724Z,16.62
2018-07-24T05:13:50.758Z,16.75
2018-07-24T05:16:21.954Z,16.73
2018-07-24T05:18:53.164Z,16.95
2018-07-24T05:21:24.111Z,16.87
2018-07-24T05:23:55.229Z,16.85
2018-07-24T05:26:26.496Z,17.03
2018-07-24T05:28:58.349Z,17.05
2018-07-24T05:31:29.483Z,17.16
2018-07-24T05:34:01.865Z,17.27
2018-07-24T05:36:41.252Z,17.33
2018-07-24T05:39:21.021Z,17.42
2018-07-24T05:42:00.248Z,17.57
2018-07-24T05:44:33.703Z,17.64
2018-07-24T05:47:05.995Z,17.83
2018-07-24T05:49:37.436Z,17.94
2018-07-24T05:52:08.511Z,18.18
2018-07-24T05:54:39.758Z,18.23
2018-07-24T05:57:10.918Z,18.28
2018-07-24T05:59:42.224Z,18.57
2018-07-24T06:02:14.581Z,18.70
2018-07-24T06:04:46.480Z,18.79
2018-07-24T06:07:22.543Z,18.87
2018-07-24T06:09:55.342Z,18.94
2018-07-24T06:12:27.980Z,19.22
2018-07-24T06:15:02.114Z,19.18
2018-07-24T06:17:35.013Z,19.30
2018-07-24T06:20:07.872Z,19.60
2018-07-24T06:22:42.154Z,19.90
2018-07-24T06:25:29.189Z,20.21
2018-07-24T06:28:04.931Z,20.42
2018-07-24T06:30:38.347Z,20.56
2018-07-24T06:33:10.879Z,20.64
2018-07-24T06:35:42.091Z,20.81
2018-07-24T06:38:13.397Z,20.90
2018-07-24T06:40:44.627Z,21.05
2018-07-24T06:43:15.599Z,21.12
2018-07-24T06:45:48.024Z,21.35
2018-07-24T06:48:19.004Z,21.64
2018-07-24T06:50:50.382Z,21.71
2018-07-24T06:53:23.645Z,21.95
2018-07-24T06:55:55.123Z,21.99
2018-07-24T06:58:35.763Z,22.13
2018-07-24T07:01:24.114Z,22.18
2018-07-24T07:03:57.123Z,22.24
2018-07-24T07:06:28.471Z,22.33
2018-07-24T07:09:06.659Z,22.44
2018-07-24T07:11:37.844Z,22.59
2018-07-24T07:14:09.032Z,22.80
2018-07-24T07:16:40.500Z,22.91
2018-07-24T07:19:11.857Z,23.07
2018-07-24T07:21:43.027Z,23.23
2018-07-24T07:24:14.095Z,23.34
2018-07-24T07:26:57.506Z,23.38
2018-07-24T07:29:30.295Z,23.32
2018-07-24T07:32:03.572Z,23.56
2018-07-24T07:34:35.018Z,23.82
2018-07-24T07:37:05.990Z,24.00
2018-07-24T07:39:37.059Z,24.04
2018-07-24T07:42:08.392Z,24.35
2018-07-24T07:44:39.816Z,24.25
2018-07-24T07:47:11.251Z,24.32
2018-07-24T07:49:57.793Z,24.28
2018-07-24T07:52:40.937Z,24.51
2018-07-24T07:55:21.868Z,24.44
2018-07-24T07:57:53.579Z,24.57
2018-07-24T08:00:37.227Z,24.44
2018-07-24T08:03:30.845Z,24.72
2018-07-24T08:06:11.051Z,24.80
2018-07-24T08:08:42.175Z,24.71
2018-07-24T08:11:14.969Z,24.90
2018-07-24T08:13:46.562Z,24.98
2018-07-24T08:16:18.675Z,24.98
2018-07-24T08:18:52.374Z,25.11
2018-07-24T08:21:25.700Z,25.43
2018-07-24T08:23:57.076Z,25.50
2018-07-24T08:26:28.913Z,25.64
2018-07-24T08:29:00.186Z,25.49
2018-07-24T08:31:31.244Z,24.86
2018-07-24T08:34:02.267Z,25.08
2018-07-24T08:36:33.460Z,25.44
2018-07-24T08:39:05.366Z,25.61
2018-07-24T08:41:36.808Z,25.64
2018-07-24T08:44:07.922Z,25.85
2018-07-24T08:46:39.066Z,25.88
2018-07-24T08:49:10.134Z,25.96
2018-07-24T08:51:41.217Z,26.02
2018-07-24T08:54:12.544Z,26.11
2018-07-24T08:56:43.759Z,26.08
2018-07-24T08:59:14.820Z,25.81
2018-07-24T09:01:45.891Z,26.05
2018-07-24T09:04:17.398Z,26.39
2018-07-24T09:06:48.570Z,26.05
2018-07-24T09:09:21.344Z,25.70
2018-07-24T09:11:52.743Z,26.27
2018-07-24T09:14:23.760Z,26.30
2018-07-24T09:16:54.826Z,26.42
2018-07-24T09:19:26.644Z,26.04
2018-07-24T09:21:57.815Z,26.62
2018-07-24T09:24:29.085Z,26.80
2018-07-24T09:27:00.768Z,26.93
2018-07-24T09:29:32.027Z,27.04
2018-07-24T09:32:04.448Z,26.98
2018-07-24T09:34:35.729Z,27.04
2018-07-24T09:37:18.227Z,27.00
2018-07-24T09:39:55.173Z,26.72
2018-07-24T09:42:26.586Z,26.81
2018-07-24T09:44:57.727Z,26.51
2018-07-24T09:47:32.061Z,26.75
2018-07-24T09:50:15.123Z,27.11
2018-07-24T09:55:36.800Z,27.24
2018-07-24T09:58:09.757Z,27.49
2018-07-24T10:01:44.523Z,27.63
2018-07-24T10:04:15.787Z,27.34
2018-07-24T10:06:48.838Z,27.27
2018-07-24T10:09:22.080Z,27.29
2018-07-24T10:11:53.303Z,27.40
2018-07-24T16:39:14.075Z,28.95
2018-07-24T16:41:45.119Z,28.82
2018-07-24T16:44:16.299Z,28.53
2018-07-24T16:46:48.567Z,28.67
2018-07-24T16:49:20.797Z,28.50
2018-07-24T16:51:53.376Z,28.67
2018-07-24T16:54:25.196Z,28.56
2018-07-24T16:56:56.442Z,28.56
2018-07-24T16:59:28.116Z,28.51
2018-07-24T17:01:59.715Z,28.52
2018-07-24T17:04:32.977Z,28.60
2018-07-24T17:07:04.567Z,28.55
2018-07-24T17:09:35.916Z,28.47
2018-07-24T17:12:08.584Z,28.43
2018-07-24T17:14:40.905Z,28.37
2018-07-24T17:17:14.065Z,28.38
2018-07-24T17:19:46.229Z,28.30
2018-07-24T17:22:18.562Z,28.21
2018-07-24T17:24:49.740Z,28.05
2018-07-24T17:27:20.929Z,28.11
2018-07-24T17:29:51.994Z,28.05
2018-07-24T17:32:23.999Z,27.82
2018-07-24T17:34:55.055Z,27.80
2018-07-24T17:37:34.882Z,27.83
2018-07-24T17:40:14.103Z,27.84
2018-07-24T17:42:52.450Z,27.87
2018-07-24T17:45:31.015Z,27.90
2018-07-24T17:48:06.180Z,28.01
2018-07-24T17:50:40.872Z,27.91
2018-07-24T17:53:13.330Z,27.83
2018-07-24T17:55:45.040Z,27.85
2018-07-24T17:58:17.033Z,27.83
2018-07-24T18:00:51.549Z,27.65
2018-07-24T18:03:22.756Z,27.65
2018-07-24T18:05:53.794Z,27.67
2018-07-24T18:08:24.839Z,27.59
2018-07-24T18:10:56.413Z,27.57
2018-07-24T18:13:27.663Z,27.58
2018-07-24T18:15:59.227Z,27.57
2018-07-24T18:18:30.489Z,27.54
2018-07-24T18:21:01.596Z,27.50
2018-07-24T18:23:32.979Z,27.41
2018-07-24T18:26:05.093Z,27.43
2018-07-24T18:28:36.747Z,27.44
2018-07-24T18:31:07.944Z,27.37
2018-07-24T18:33:39.118Z,27.23
2018-07-24T18:36:12.037Z,27.21
2018-07-24T18:38:43.010Z,27.20
2018-07-24T18:41:14.986Z,27.12
2018-07-24T18:43:48.392Z,27.01
2018-07-24T18:46:21.572Z,27.03
2018-07-24T18:48:52.841Z,26.85
2018-07-24T18:51:24.013Z,26.85
2018-07-24T18:53:55.545Z,26.73
2018-07-24T18:56:27.665Z,26.75
2018-07-24T18:58:59.072Z,26.68
2018-07-24T19:01:30.575Z,26.69
2018-07-24T19:04:01.995Z,26.40
2018-07-24T19:06:33.585Z,26.51
2018-07-24T19:09:06.759Z,26.52
2018-07-24T19:11:38.217Z,26.34
2018-07-24T19:14:09.504Z,26.27
2018-07-24T19:16:40.539Z,26.13
2018-07-24T19:19:11.683Z,26.04
2018-07-24T19:21:43.821Z,25.95
2018-07-24T19:24:16.616Z,25.88
2018-07-24T19:26:47.930Z,25.72
2018-07-24T19:29:19.963Z,25.49
2018-07-24T19:31:51.377Z,25.25
2018-07-24T19:34:23.012Z,25.11
2018-07-24T19:36:54.178Z,24.78
2018-07-24T19:39:25.845Z,24.66
2018-07-24T19:41:57.723Z,24.52
2018-07-24T19:44:34.726Z,24.39
2018-07-24T19:47:08.080Z,24.11
2018-07-24T19:49:39.642Z,23.96
2018-07-24T19:52:10.999Z,23.90
2018-07-24T19:54:43.017Z,23.76
2018-07-24T19:57:15.148Z,23.52
2018-07-24T19:59:46.784Z,23.41
2018-07-24T20:02:18.390Z,23.24
2018-07-24T20:04:49.390Z,23.09
2018-07-24T20:07:20.397Z,22.70
2018-07-24T20:09:52.411Z,22.46
2018-07-24T20:12:23.500Z,22.56
2018-07-24T20:14:54.539Z,22.62
2018-07-24T20:17:25.867Z,22.62
2018-07-24T20:20:02.603Z,22.61
2018-07-24T20:22:34.925Z,22.46
2018-07-24T20:25:09.071Z,22.23
2018-07-24T20:27:40.217Z,22.30
2018-07-24T20:30:12.228Z,22.46
2018-07-24T20:32:43.651Z,22.40
2018-07-24T20:35:14.922Z,22.45
2018-07-24T20:37:48.141Z,22.23
2018-07-24T20:40:20.232Z,21.98
2018-07-24T20:42:53.627Z,21.94
2018-07-24T20:45:26.710Z,22.28
2018-07-24T20:47:59.234Z,22.10
2018-07-24T20:50:31.323Z,22.05
2018-07-24T20:53:03.744Z,22.03
2018-07-24T20:55:36.212Z,21.69
2018-07-24T20:58:10.907Z,21.76
2018-07-24T21:00:49.113Z,21.63
2018-07-24T21:03:20.673Z,21.91
2018-07-24T21:05:52.143Z,21.84
2018-07-24T21:08:23.395Z,21.66
2018-07-24T21:10:55.533Z,21.59
2018-07-24T21:13:27.776Z,21.59
2018-07-24T21:15:59.176Z,21.48
2018-07-24T21:18:30.913Z,21.41
2018-07-24T21:21:02.628Z,21.47
2018-07-24T21:23:34.493Z,21.41
2018-07-24T21:26:15.597Z,21.36
2018-07-24T21:28:58.887Z,21.37
2018-07-24T21:31:37.029Z,21.31
2018-07-24T21:34:08.494Z,21.18
2018-07-24T21:36:41.087Z,20.94
2018-07-24T21:39:13.536Z,20.33
2018-07-24T21:41:44.991Z,20.41
2018-07-24T21:44:17.785Z,20.16
2018-07-24T21:46:49.125Z,20.26
2018-07-24T21:49:20.944Z,20.46
2018-07-24T21:51:57.231Z,20.51
2018-07-24T21:54:28.887Z,20.46
2018-07-24T21:57:00.303Z,20.53
2018-07-24T21:59:31.986Z,20.51
2018-07-24T22:02:04.055Z,20.50
2018-07-24T22:04:36.117Z,20.32
2018-07-24T22:07:07.364Z,20.54
2018-07-24T22:09:39.778Z,20.40
2018-07-24T22:12:12.547Z,20.48
2018-07-24T22:14:44.288Z,20.41
2018-07-24T22:17:15.728Z,20.42
2018-07-24T22:19:47.962Z,19.91
2018-07-24T22:22:19.401Z,19.99
2018-07-24T22:24:50.613Z,19.80
2018-07-24T22:27:22.223Z,19.81
2018-07-24T22:29:53.333Z,19.97
2018-07-24T22:32:24.593Z,19.87
2018-07-24T22:34:55.784Z,19.88
2018-07-24T22:37:28.063Z,19.94
2018-07-24T22:39:59.115Z,19.67
2018-07-24T22:42:30.310Z,19.61
2018-07-24T22:45:01.812Z,19.82
2018-07-24T22:47:33.167Z,20.04
2018-07-24T22:50:04.684Z,19.83
2018-07-24T22:52:36.272Z,19.91
2018-07-24T22:55:08.143Z,19.48
2018-07-24T22:57:40.545Z,19.44
2018-07-24T23:00:12.338Z,19.50
2018-07-24T23:02:43.505Z,19.37
2018-07-24T23:05:14.859Z,19.35
2018-07-24T23:07:46.448Z,19.50
2018-07-24T23:10:17.612Z,19.60
2018-07-24T23:12:48.927Z,19.40
2018-07-24T23:15:20.233Z,19.20
2018-07-24T23:17:51.696Z,19.16
2018-07-24T23:20:25.965Z,19.25
2018-07-24T23:22:57.411Z,19.43
2018-07-24T23:25:28.724Z,19.38
2018-07-24T23:28:00.143Z,19.18
2018-07-24T23:30:32.994Z,19.07
2018-07-24T23:33:05.724Z,19.10
2018-07-24T23:35:37.737Z,19.23
2018-07-24T23:38:10.030Z,19.18
2018-07-24T23:40:41.457Z,19.11
2018-07-24T23:43:13.165Z,19.06
2018-07-24T23:45:44.737Z,19.25
2018-07-24T23:48:16.068Z,19.19
2018-07-24T23:50:47.675Z,18.88
2018-07-24T23:53:19.129Z,18.96
2018-07-24T23:55:51.426Z,19.11
2018-07-24T23:58:23.189Z,19.15
